Главная страница
METAR-TAF:

METAR-TAF

Аэропорты :

Пермь, Россия

широта: 58-00N, долгота: 056-15E, высота над уровнем моря: 170 м

Текущие метеонаблюдения

Эта сводка был подготовлена 18 минут назад, в 14:00 UTC
Ветер 16 Узел от южный
Температура 0°C
Влажность 69%
Давление 1015 hPa
Видимость 10 км и более
Нет облачности ниже 1500 м, и нет кучево-дождевой облачности

METAR: USPP 231400Z 18008MPS CAVOK 00/M05 Q1015 R21/110055 NOSIG RMK QFE750

Время: 19:18 (14:18 UTC)

Прогноз

Эта сводка был подготовлена 3 часа и 20 минут назад, в 10:58 UTC
Прогноз действительный с 23-го 12 UTC до 24-го 12 UTC
Ветер 12 Узел от южный с порывами до 31 Узел
Видимость 10 км и более
Рассеянная облачность на высоте 1600 фута
изменения
С 23-го 15 UTC до 23-го 16 UTC
Ветер 14 Узел от южный с порывами до 33 Узел
изменения
С 23-го 18 UTC до 23-го 19 UTC
Видимость: 6000 м
небольшой снег

TAF: USPP 231058Z 2312/2412 19006G16MPS 9999 BKN016 BECMG 2315/2316 17007G17MPS BECMG 2318/2319 6000 -SN

Метеонаблюдения и прогнозы для более 4000 аэропортов (сводки METAR и TAF).

Имеющиеся станции представлены на карте желтыми и красными точками.

Чтобы увидеть название станции, наведите на нее мышь.

Затем щелкните, чтобы увидеть метеонаблюдения и метеопрогнозы.

Управление картой: чтобы увеличить масштаб, щелкните зеленые кнопки с черным крестиком; чтобы уменьшить масштаб, щелкните зеленую кнопку с тире; для просмотра соседних карт щелкайте зеленые стрелки.


METAR-TAF: